»·PEaware :: PAA576 KLAS-KSAN

PAA576 :: KLAS-KSAN

FLIGHT INFORMATION

Flight Status: Arrived
Operator:
PanAm
More flights by this operator :: More flights under this callsign
Pilot: Anonymous 8274 (8274)
Aircraft: BOEING 737-200
(B732)
More flights by this aircraft type
Origin: KLAS McCarran Intl
United States
Destination: KSAN San Diego Intl-Lindbergh
United States
More flights between these airports :: More routes between these airports
Route: + MCCRN5 TNP BARET5
File this flight plan on PilotEdge
Remarks: Prefer no shortcuts
Altitude:
(Current/Filed)
30,000ft
Speed:
(Current/Filed)
460kts
Departed: 18-Nov-18 06:30 PM
Arrived: 18-Nov-18 07:16 PM
Distance/Time
Traveled:
225nm/0:45
Distance/Time
To Go:
Arrived

Flight Plot

Page will automatically refresh every two minutes.

Flight plan parsing failed; only flown route is shown


Map Options




Map Legend


Flown Route
Filed Route
Departure Airport
Arrival Airport
Navaid (VOR, NDB)
Fix

Horizontal Profiles

Position Reports

Time Latitude Longitude Heading Altitude Ground
Speed
18-Nov-18 18:01 36.079883 -115.139541 355 2120ft 0kts
18-Nov-18 18:02 36.079883 -115.139541 355 2120ft 0kts
18-Nov-18 18:03 36.079883 -115.139541 355 2120ft 0kts
18-Nov-18 18:04 36.079883 -115.139541 355 2120ft 0kts
18-Nov-18 18:05 36.079883 -115.139541 355 2120ft 0kts
18-Nov-18 18:06 36.079883 -115.139541 355 2120ft 0kts
18-Nov-18 18:07 36.079883 -115.139541 355 2120ft 0kts
18-Nov-18 18:08 36.079883 -115.139541 355 2120ft 0kts
18-Nov-18 18:09 36.079883 -115.139541 355 2120ft 0kts
18-Nov-18 18:10 36.079883 -115.139541 355 2120ft 0kts
18-Nov-18 18:11 36.079883 -115.139541 355 2120ft 0kts
18-Nov-18 18:12 36.079883 -115.139541 355 2120ft 0kts
18-Nov-18 18:13 36.079883 -115.139541 355 2120ft 0kts
18-Nov-18 18:14 36.079883 -115.139541 355 2120ft 0kts
18-Nov-18 18:15 36.079883 -115.139541 355 2120ft 0kts
18-Nov-18 18:16 36.079885 -115.139542 355 2120ft 0kts
18-Nov-18 18:17 36.079573 -115.139497 339 2120ft 2kts
18-Nov-18 18:18 36.079376 -115.138897 242 2120ft 2kts
18-Nov-18 18:19 36.079453 -115.138770 225 2120ft 0kts
18-Nov-18 18:20 36.079453 -115.138770 225 2120ft 0kts
18-Nov-18 18:21 36.079453 -115.138770 225 2120ft 0kts
18-Nov-18 18:22 36.079453 -115.138770 225 2120ft 0kts
18-Nov-18 18:23 36.079453 -115.138770 225 2120ft 0kts
18-Nov-18 18:24 36.079401 -115.138836 225 2120ft 0kts
18-Nov-18 18:25 36.078235 -115.139454 94 2120ft 9kts
18-Nov-18 18:26 36.078251 -115.134853 90 2120ft 16kts
18-Nov-18 18:27 36.078252 -115.127492 90 2120ft 25kts
18-Nov-18 18:28 36.077462 -115.121554 131 2120ft 8kts
18-Nov-18 18:29 36.077418 -115.121501 138 2120ft 0kts
18-Nov-18 18:30 36.077418 -115.121501 138 2120ft 0kts
18-Nov-18 18:31 36.077418 -115.121501 138 2120ft 0kts
18-Nov-18 18:32 36.076863 -115.121309 177 2120ft 8kts
18-Nov-18 18:33 36.076391 -115.133810 269 2120ft 129kts
18-Nov-18 18:34 36.077605 -115.185996 271 3883ft 158kts
18-Nov-18 18:35 36.070997 -115.246442 220 5412ft 212kts
18-Nov-18 18:36 36.011114 -115.281393 202 7371ft 270kts
18-Nov-18 18:37 35.937556 -115.321186 203 9764ft 305kts
18-Nov-18 18:38 35.855527 -115.360162 202 11596ft 344kts
18-Nov-18 18:39 35.762163 -115.374864 161 13889ft 360kts
18-Nov-18 18:40 35.666390 -115.333283 160 15857ft 374kts
18-Nov-18 18:41 35.567134 -115.289668 160 17614ft 386kts
18-Nov-18 18:42 35.464685 -115.243845 160 19161ft 399kts
18-Nov-18 18:43 35.360242 -115.197395 160 19119ft 396kts
18-Nov-18 18:44 35.255411 -115.150637 160 20173ft 405kts
18-Nov-18 18:45 35.147088 -115.147640 207 21415ft 402kts
18-Nov-18 18:46 35.048418 -115.213605 211 22584ft 408kts
18-Nov-18 18:47 34.938754 -115.254638 204 23601ft 418kts
18-Nov-18 18:48 34.834696 -115.304911 205 24496ft 423kts
18-Nov-18 18:49 34.724616 -115.356350 203 25332ft 428kts
18-Nov-18 18:50 34.612151 -115.406132 203 26084ft 432kts
18-Nov-18 18:51 34.498897 -115.456269 203 26769ft 436kts
18-Nov-18 18:52 34.384832 -115.507175 203 27375ft 440kts
18-Nov-18 18:53 34.275702 -115.569272 219 28065ft 432kts
18-Nov-18 18:54 34.196265 -115.667039 235 28811ft 420kts
18-Nov-18 18:55 34.117390 -115.763161 220 29257ft 431kts
18-Nov-18 18:56 34.004688 -115.807419 182 29547ft 449kts
18-Nov-18 18:57 33.882667 -115.827908 196 29590ft 455kts
18-Nov-18 18:58 33.766821 -115.867636 199 27443ft 440kts
18-Nov-18 18:59 33.651360 -115.907671 197 25057ft 428kts
18-Nov-18 19:00 33.539345 -115.944270 211 24061ft 405kts
18-Nov-18 19:01 33.458948 -116.032237 229 24082ft 400kts
18-Nov-18 19:02 33.384292 -116.132215 236 24089ft 403kts
18-Nov-18 19:03 33.303863 -116.223346 216 23343ft 406kts
18-Nov-18 19:04 33.218028 -116.305200 226 21061ft 389kts
18-Nov-18 19:05 33.146544 -116.397756 232 18910ft 374kts
18-Nov-18 19:06 33.078308 -116.487998 231 16812ft 363kts
18-Nov-18 19:07 33.008423 -116.571264 225 14718ft 348kts
18-Nov-18 19:08 32.937070 -116.645730 219 11990ft 338kts
18-Nov-18 19:09 32.853019 -116.671989 191 11111ft 341kts
18-Nov-18 19:10 32.763999 -116.690614 191 10173ft 298kts
18-Nov-18 19:11 32.714702 -116.758119 249 7467ft 279kts
18-Nov-18 19:12 32.685439 -116.841394 249 5296ft 271kts
18-Nov-18 19:13 32.658554 -116.918650 250 4972ft 234kts
18-Nov-18 19:14 32.639969 -116.992696 287 4995ft 230kts
18-Nov-18 19:15 32.677995 -117.044756 320 4495ft 183kts
18-Nov-18 19:16 32.707067 -117.085574 294 2789ft 147kts
18-Nov-18 19:17 32.719100 -117.130018 286 1462ft 139kts
18-Nov-18 19:18 32.729804 -117.174109 286 241ft 137kts
18-Nov-18 19:19 32.734944 -117.198825 251 23ft 22kts
18-Nov-18 19:20 32.734861 -117.199096 246 23ft 0kts
18-Nov-18 19:21 32.733685 -117.198939 147 23ft 0kts
18-Nov-18 19:22 32.733685 -117.198939 147 23ft 0kts
18-Nov-18 19:23 32.733685 -117.198939 147 23ft 0kts
18-Nov-18 19:24 32.733685 -117.198939 147 23ft 0kts
18-Nov-18 19:25 32.733685 -117.198939 147 23ft 0kts
18-Nov-18 19:26 32.733685 -117.198939 147 23ft 0kts
18-Nov-18 19:27 32.733685 -117.198939 147 23ft 0kts
18-Nov-18 19:28 32.733685 -117.198939 147 23ft 0kts
18-Nov-18 19:29 32.733685 -117.198939 147 23ft 0kts
18-Nov-18 19:30 32.733685 -117.198939 147 23ft 0kts
18-Nov-18 19:31 32.733685 -117.198939 147 23ft 0kts
18-Nov-18 19:32 32.733685 -117.198939 147 23ft 0kts
18-Nov-18 19:33 32.733685 -117.198939 147 23ft 0kts

Navigation Log

Ident Type
Flight plan parsing failed, navigation log unavailable